Time;durP1;ratioP1;P1;durP2;ratioP2;P2;SDS_P1;SDS_P2;PMS_P1;PMS_P2;Temp;Humidity;BMP_temperature;BMP_pressure;BME280_temperature;BME280_humidity;BME280_pressure;Samples;Min_cycle;Max_cycle;Signal;HPM_P1;HPM_P2
2023/04/05 00:00:37;;;;;;;0.90;0.70;;;21.90;29.00;;;;;;5074793;28;20485;-59
2023/04/05 00:03:05;;;;;;;1.33;0.93;;;21.80;28.90;;;;;;5074332;28;20485;-59
2023/04/05 00:05:33;;;;;;;0.60;0.50;;;21.80;28.90;;;;;;5075287;28;20409;-58
2023/04/05 00:08:01;;;;;;;0.90;0.80;;;21.80;28.90;;;;;;5075001;28;20088;-58
2023/04/05 00:10:30;;;;;;;1.10;1.00;;;21.80;28.90;;;;;;5074961;28;20049;-58
2023/04/05 00:12:57;;;;;;;0.52;0.52;;;21.80;28.90;;;;;;5073531;28;20515;-58
2023/04/05 00:15:26;;;;;;;0.60;0.60;;;21.90;29.00;;;;;;5074703;28;20084;-58
2023/04/05 00:17:54;;;;;;;0.88;0.80;;;21.80;28.90;;;;;;5074483;28;20056;-59
2023/04/05 00:20:21;;;;;;;0.57;0.43;;;21.90;29.00;;;;;;5074511;28;20127;-59
2023/04/05 00:22:49;;;;;;;0.80;0.80;;;21.80;28.90;;;;;;5073935;28;20048;-58
2023/04/05 00:25:17;;;;;;;0.70;0.70;;;21.80;28.90;;;;;;5074022;28;20048;-59
2023/04/05 00:27:44;;;;;;;1.20;0.80;;;21.80;29.30;;;;;;5074251;28;20048;-60
2023/04/05 00:30:12;;;;;;;1.73;0.60;;;21.90;29.00;;;;;;5074468;28;20135;-59
2023/04/05 00:32:39;;;;;;;0.60;0.60;;;21.90;28.90;;;;;;5074611;28;20048;-58
2023/04/05 00:35:06;;;;;;;1.02;0.82;;;21.80;28.90;;;;;;5074113;28;20099;-59
2023/04/05 00:37:33;;;;;;;0.98;0.98;;;21.80;28.90;;;;;;5074649;28;20052;-59
2023/04/05 00:40:04;;;;;;;0.70;0.70;;;21.80;28.90;;;;;;5075170;28;20056;-58
2023/04/05 00:42:31;;;;;;;1.30;0.95;;;21.80;28.90;;;;;;5073881;28;20048;-59
2023/04/05 00:44:58;;;;;;;0.55;0.55;;;21.80;28.90;;;;;;5075039;28;20048;-59
2023/04/05 00:47:26;;;;;;;1.02;0.70;;;21.80;28.90;;;;;;5073938;28;20497;-59
2023/04/05 00:49:53;;;;;;;1.27;0.77;;;21.80;28.90;;;;;;5073625;28;20081;-59
2023/04/05 00:52:22;;;;;;;1.10;0.80;;;21.80;28.90;;;;;;5073478;28;20054;-58
2023/04/05 00:54:50;;;;;;;0.70;0.70;;;21.80;29.00;;;;;;5073929;28;20468;-59
2023/04/05 00:57:17;;;;;;;0.57;0.57;;;21.80;29.00;;;;;;5073269;28;20504;-59
2023/04/05 00:59:45;;;;;;;1.65;0.98;;;21.80;29.00;;;;;;5074175;28;20051;-59
2023/04/05 01:02:32;;;;;;;1.00;0.90;;;21.80;29.00;;;;;;5073771;28;20048;-59
2023/04/05 01:05:08;;;;;;;0.73;0.73;;;21.80;29.00;;;;;;5073738;28;20084;-59
2023/04/05 01:07:47;;;;;;;1.35;1.00;;;21.80;29.00;;;;;;5073802;28;20051;-59
2023/04/05 01:10:19;;;;;;;0.70;0.70;;;21.70;28.90;;;;;;5072961;28;20564;-58
2023/04/05 01:12:47;;;;;;;0.73;0.60;;;21.70;29.00;;;;;;5074090;28;20495;-59
2023/04/05 01:15:14;;;;;;;0.73;0.70;;;21.80;29.00;;;;;;5074272;28;20144;-58
2023/04/05 01:17:43;;;;;;;1.00;1.00;;;21.80;29.00;;;;;;5073555;28;20145;-59
2023/04/05 01:20:11;;;;;;;0.70;0.60;;;21.80;29.00;;;;;;5073419;28;20481;-59
2023/04/05 01:23:17;;;;;;;0.85;0.75;;;21.80;29.00;;;;;;5073612;28;20517;-59
2023/04/05 01:26:23;;;;;;;0.80;0.73;;;21.70;29.00;;;;;;5073244;28;20634;-59
2023/04/05 01:29:30;;;;;;;0.65;0.65;;;21.70;29.00;;;;;;5071982;28;20040;-58
2023/04/05 01:32:37;;;;;;;0.80;0.70;;;21.80;29.10;;;;;;5073356;28;20094;-59
2023/04/05 01:35:23;;;;;;;2.22;1.42;;;21.70;29.00;;;;;;5073543;28;20109;-58
2023/04/05 01:37:58;;;;;;;1.38;0.75;;;21.70;29.00;;;;;;5073438;28;20052;-58
2023/04/05 01:40:26;;;;;;;1.20;0.80;;;21.70;29.00;;;;;;5088423;28;20047;-58
2023/04/05 01:42:53;;;;;;;1.23;0.80;;;21.70;29.00;;;;;;5093268;28;20134;-59
2023/04/05 01:45:20;;;;;;;1.40;0.95;;;21.70;29.00;;;;;;5093857;28;20052;-59
2023/04/05 01:47:47;;;;;;;0.80;0.80;;;21.70;29.10;;;;;;5091764;28;20054;-58
2023/04/05 01:50:14;;;;;;;1.73;1.10;;;21.70;29.10;;;;;;5094050;28;20044;-59
2023/04/05 01:52:41;;;;;;;1.42;0.60;;;21.70;29.00;;;;;;5093607;28;20134;-59
2023/04/05 01:55:09;;;;;;;0.77;0.77;;;21.70;29.10;;;;;;5093351;28;20464;-59
2023/04/05 01:57:37;;;;;;;0.80;0.80;;;21.70;29.10;;;;;;5093136;28;20044;-58
2023/04/05 02:00:05;;;;;;;0.70;0.63;;;21.60;29.10;;;;;;5092949;28;20051;-59
2023/04/05 02:02:32;;;;;;;0.88;0.88;;;21.70;29.10;;;;;;5093139;28;20044;-58
2023/04/05 02:04:59;;;;;;;0.80;0.80;;;21.70;29.10;;;;;;5092612;28;20127;-59
2023/04/05 02:07:26;;;;;;;0.82;0.82;;;21.60;29.10;;;;;;5093134;28;20058;-59
2023/04/05 02:09:54;;;;;;;0.98;0.88;;;21.70;29.50;;;;;;5092684;28;20161;-58
2023/04/05 02:12:21;;;;;;;0.70;0.70;;;21.60;29.10;;;;;;5092443;28;20131;-58
2023/04/05 02:14:50;;;;;;;1.15;0.75;;;21.70;29.10;;;;;;5093341;28;20556;-59
2023/04/05 02:17:17;;;;;;;1.02;0.93;;;21.60;29.10;;;;;;5092260;28;20076;-59
2023/04/05 02:19:45;;;;;;;0.70;0.65;;;21.60;29.10;;;;;;5092629;28;20060;-59
2023/04/05 02:22:13;;;;;;;0.60;0.60;;;21.70;29.10;;;;;;5092600;28;20407;-59
2023/04/05 02:24:40;;;;;;;0.80;0.70;;;21.70;29.10;;;;;;5091627;28;20075;-59
2023/04/05 02:27:07;;;;;;;0.98;0.60;;;21.70;29.10;;;;;;5092489;28;20048;-59
2023/04/05 02:29:34;;;;;;;0.98;0.98;;;21.70;29.10;;;;;;5092769;28;20139;-59
2023/04/05 02:32:01;;;;;;;0.50;0.50;;;21.60;29.10;;;;;;5092425;28;20051;-59
2023/04/05 02:34:30;;;;;;;0.63;0.63;;;21.70;29.10;;;;;;5092385;28;20068;-59
2023/04/05 02:36:57;;;;;;;1.05;0.82;;;21.60;29.10;;;;;;5091517;28;20058;-59
2023/04/05 02:39:25;;;;;;;1.00;0.82;;;21.60;29.10;;;;;;5092907;28;20048;-59
2023/04/05 02:41:52;;;;;;;1.00;0.80;;;21.60;29.10;;;;;;5092556;28;20052;-59
2023/04/05 02:44:19;;;;;;;0.80;0.80;;;21.60;29.10;;;;;;5092759;28;20055;-58
2023/04/05 02:46:46;;;;;;;0.80;0.75;;;21.60;29.10;;;;;;5092650;28;20047;-59
2023/04/05 02:49:13;;;;;;;0.70;0.70;;;21.60;29.50;;;;;;5093192;28;20138;-58
2023/04/05 02:51:40;;;;;;;0.90;0.70;;;21.60;29.10;;;;;;5091417;28;20201;-59
2023/04/05 02:54:07;;;;;;;1.00;0.90;;;21.60;29.10;;;;;;5092790;28;20052;-60
2023/04/05 02:56:35;;;;;;;0.80;0.80;;;21.60;29.10;;;;;;5092502;28;20048;-59
2023/04/05 02:59:02;;;;;;;0.60;0.60;;;21.60;29.10;;;;;;5091491;28;20155;-59
2023/04/05 03:01:31;;;;;;;0.93;0.90;;;21.60;29.10;;;;;;5091651;28;20071;-59
2023/04/05 03:03:58;;;;;;;0.88;0.88;;;21.60;29.10;;;;;;5091912;28;20051;-58
2023/04/05 03:06:26;;;;;;;1.85;1.17;;;21.60;29.10;;;;;;5091943;28;20480;-59
2023/04/05 03:08:54;;;;;;;0.85;0.85;;;21.60;29.10;;;;;;5091967;28;20044;-59
2023/04/05 03:11:23;;;;;;;0.88;0.88;;;21.60;29.10;;;;;;5091053;28;20068;-59
2023/04/05 03:13:50;;;;;;;0.70;0.70;;;21.60;29.10;;;;;;5092098;28;20142;-59
2023/04/05 03:16:18;;;;;;;0.95;0.88;;;21.60;29.10;;;;;;5091560;28;20055;-59
2023/04/05 03:18:46;;;;;;;0.95;0.88;;;21.60;29.10;;;;;;5096451;28;20075;-59
2023/04/05 03:21:16;;;;;;;0.70;0.70;;;21.60;29.10;;;;;;5094806;28;20043;-59
2023/04/05 03:23:49;;;;;;;1.42;1.10;;;21.60;29.10;;;;;;5085211;28;20587;-59
2023/04/05 03:26:16;;;;;;;0.93;0.93;;;21.60;29.10;;;;;;5090316;28;20040;-59
2023/04/05 03:28:43;;;;;;;1.42;1.13;;;21.60;29.10;;;;;;5093861;28;20052;-59
2023/04/05 03:31:11;;;;;;;0.90;0.90;;;21.50;29.10;;;;;;5076715;28;20102;-59
2023/04/05 03:33:38;;;;;;;0.90;0.90;;;21.60;29.10;;;;;;5080499;28;20510;-59
2023/04/05 03:36:05;;;;;;;0.80;0.73;;;21.50;29.10;;;;;;5093392;28;20130;-59
2023/04/05 03:38:33;;;;;;;1.42;1.33;;;21.60;29.20;;;;;;5094435;28;20048;-59
2023/04/05 03:41:02;;;;;;;1.60;0.88;;;21.60;29.20;;;;;;5093735;28;20044;-59
2023/04/05 03:43:29;;;;;;;0.90;0.90;;;21.60;29.20;;;;;;5088574;28;20055;-58
2023/04/05 03:45:56;;;;;;;0.90;0.70;;;21.50;29.10;;;;;;5084017;28;20403;-59
2023/04/05 03:48:23;;;;;;;1.30;0.88;;;21.50;29.10;;;;;;5094085;28;20044;-59
2023/04/05 03:50:50;;;;;;;0.98;0.95;;;21.50;29.10;;;;;;5093567;28;20135;-59
2023/04/05 03:53:18;;;;;;;0.73;0.70;;;21.50;29.20;;;;;;5094871;28;20139;-59
2023/04/05 03:55:48;;;;;;;1.70;1.27;;;21.50;29.20;;;;;;5094090;28;20051;-59
2023/04/05 03:58:16;;;;;;;0.95;0.95;;;21.50;29.20;;;;;;5095296;28;20214;-59
2023/04/05 04:00:43;;;;;;;1.25;0.85;;;21.50;29.10;;;;;;5094219;28;20044;-59
2023/04/05 04:03:10;;;;;;;0.70;0.70;;;21.50;29.10;;;;;;5095232;28;20079;-59
2023/04/05 04:05:38;;;;;;;0.88;0.88;;;21.50;29.20;;;;;;5092313;28;20044;-58
2023/04/05 04:08:06;;;;;;;2.65;1.25;;;21.50;29.20;;;;;;5078765;28;20082;-59
2023/04/05 04:10:34;;;;;;;0.80;0.80;;;21.50;29.20;;;;;;5082581;28;20531;-59
2023/04/05 04:13:01;;;;;;;1.75;1.10;;;21.50;29.20;;;;;;5074415;28;20048;-59
2023/04/05 04:15:28;;;;;;;1.42;1.20;;;21.50;29.20;;;;;;5075090;28;20102;-59
2023/04/05 04:17:56;;;;;;;1.42;1.08;;;21.50;29.20;;;;;;5074006;28;20147;-59
2023/04/05 04:20:23;;;;;;;1.00;0.85;;;21.50;29.60;;;;;;5078693;28;20067;-59
2023/04/05 04:22:52;;;;;;;0.70;0.70;;;21.50;29.20;;;;;;5080058;28;20414;-59
2023/04/05 04:25:21;;;;;;;1.08;1.08;;;21.50;29.20;;;;;;5084615;28;20043;-59
2023/04/05 04:27:49;;;;;;;1.10;0.98;;;21.50;29.20;;;;;;5076684;28;20048;-59
2023/04/05 04:30:16;;;;;;;0.80;0.80;;;21.50;29.20;;;;;;5078766;28;20044;-59
2023/04/05 04:32:50;;;;;;;0.70;0.70;;;21.50;29.20;;;;;;5091742;28;20142;-59
2023/04/05 04:35:23;;;;;;;1.52;1.33;;;21.50;29.20;;;;;;5089203;28;20392;-59
2023/04/05 04:37:59;;;;;;;1.63;1.48;;;21.50;29.00;;;;;;5088686;28;20052;-59
2023/04/05 04:40:45;;;;;;;1.40;1.30;;;21.50;28.90;;;;;;5091499;28;20041;-59
2023/04/05 04:43:16;;;;;;;1.27;1.23;;;21.50;28.80;;;;;;5085176;28;20049;-59
2023/04/05 04:45:47;;;;;;;1.95;1.30;;;21.50;28.70;;;;;;5080981;28;20050;-59
2023/04/05 04:48:17;;;;;;;1.70;1.55;;;21.50;28.70;;;;;;5085670;28;20395;-60
2023/04/05 04:50:45;;;;;;;2.28;1.60;;;21.40;28.60;;;;;;5091294;28;20052;-59
2023/04/05 04:53:16;;;;;;;1.77;1.60;;;21.40;28.60;;;;;;5092746;28;20054;-59
2023/04/05 04:55:43;;;;;;;1.70;1.58;;;21.40;28.50;;;;;;5082832;28;20094;-59
2023/04/05 04:58:12;;;;;;;2.13;1.60;;;21.40;28.50;;;;;;5074574;28;20470;-59
2023/04/05 05:00:43;;;;;;;1.92;1.83;;;21.40;28.50;;;;;;5082267;28;20467;-59
2023/04/05 05:03:12;;;;;;;1.90;1.63;;;21.40;28.50;;;;;;5075835;28;20053;-59
2023/04/05 05:05:44;;;;;;;1.83;1.73;;;21.50;28.40;;;;;;5074209;28;20556;-59
2023/04/05 05:08:11;;;;;;;3.13;2.10;;;21.50;28.40;;;;;;5074396;28;20551;-59
2023/04/05 05:10:38;;;;;;;2.30;2.08;;;21.50;28.40;;;;;;5081957;28;20476;-59
2023/04/05 05:13:06;;;;;;;1.95;1.83;;;21.60;28.40;;;;;;5086907;28;20424;-59
2023/04/05 05:15:33;;;;;;;2.47;2.10;;;21.60;28.30;;;;;;5088822;28;20043;-59
2023/04/05 05:18:00;;;;;;;2.35;2.15;;;21.60;28.30;;;;;;5088791;28;20058;-59
2023/04/05 05:20:27;;;;;;;3.58;2.20;;;21.70;28.20;;;;;;5086247;28;20050;-58
2023/04/05 05:22:55;;;;;;;2.08;1.90;;;21.70;28.20;;;;;;5084031;28;20389;-58
2023/04/05 05:25:22;;;;;;;3.45;2.20;;;21.70;28.10;;;;;;5078698;28;20131;-58
2023/04/05 05:27:49;;;;;;;2.45;2.25;;;21.80;28.10;;;;;;5083875;28;20058;-58
2023/04/05 05:30:18;;;;;;;1.98;1.85;;;21.80;28.10;;;;;;5079483;28;20062;-58
2023/04/05 05:32:46;;;;;;;3.92;2.55;;;21.80;28.00;;;;;;5079320;28;20054;-57
2023/04/05 05:35:13;;;;;;;2.45;2.25;;;21.90;27.00;;;;;;5082401;28;20484;-62
2023/04/05 05:37:40;;;;;;;2.60;2.40;;;21.90;27.50;;;;;;5079837;28;20496;-60
2023/04/05 05:40:08;;;;;;;2.90;2.58;;;22.00;27.60;;;;;;5075872;28;20056;-61
2023/04/05 05:42:36;;;;;;;3.50;2.58;;;22.00;27.60;;;;;;5080902;28;20444;-63
2023/04/05 05:45:05;;;;;;;4.95;2.80;;;22.10;27.60;;;;;;5075783;28;20078;-63
2023/04/05 05:47:32;;;;;;;4.07;2.70;;;22.10;27.80;;;;;;5076461;28;20097;-62
2023/04/05 05:49:59;;;;;;;4.03;2.53;;;22.20;28.10;;;;;;5077349;28;20056;-62
2023/04/05 05:52:26;;;;;;;6.80;2.42;;;22.30;28.30;;;;;;5078371;28;20068;-61
2023/04/05 05:54:53;;;;;;;3.05;2.70;;;22.40;28.30;;;;;;5079033;28;20052;-61
2023/04/05 05:57:22;;;;;;;2.47;2.20;;;22.40;28.40;;;;;;5085306;28;20052;-62
2023/04/05 05:59:49;;;;;;;5.10;2.75;;;22.40;28.40;;;;;;5078650;28;20075;-62
2023/04/05 06:02:16;;;;;;;6.25;2.70;;;22.50;28.50;;;;;;5076398;28;20074;-63
2023/04/05 06:04:44;;;;;;;3.38;2.58;;;22.50;28.40;;;;;;5081411;28;20076;-63
2023/04/05 06:07:11;;;;;;;3.60;2.63;;;22.60;28.20;;;;;;5081968;28;20064;-62
2023/04/05 06:09:39;;;;;;;3.47;2.65;;;22.60;28.10;;;;;;5084025;28;20074;-64
2023/04/05 06:12:06;;;;;;;6.40;2.85;;;22.60;27.90;;;;;;5079312;28;20052;-63
2023/04/05 06:14:34;;;;;;;4.05;2.83;;;22.70;27.90;;;;;;5081981;28;20480;-62
2023/04/05 06:17:01;;;;;;;2.50;2.30;;;22.70;27.90;;;;;;5078064;28;20082;-62
2023/04/05 06:19:28;;;;;;;2.50;2.30;;;22.80;28.10;;;;;;5075718;28;20062;-62
2023/04/05 06:21:55;;;;;;;3.45;2.78;;;22.90;28.40;;;;;;5080767;28;20599;-61
2023/04/05 06:24:22;;;;;;;3.30;2.15;;;22.90;28.30;;;;;;5080137;28;20062;-62
2023/04/05 06:26:50;;;;;;;3.55;2.67;;;22.90;28.30;;;;;;5084550;28;20143;-60
2023/04/05 06:29:17;;;;;;;3.08;2.80;;;23.00;28.40;;;;;;5083098;28;20062;-57
2023/04/05 06:31:47;;;;;;;7.30;3.08;;;23.00;28.40;;;;;;5080922;28;20141;-62
2023/04/05 06:34:15;;;;;;;2.88;2.60;;;23.10;28.30;;;;;;5084864;28;20064;-61
2023/04/05 06:36:42;;;;;;;3.40;2.70;;;23.10;28.20;;;;;;5083532;28;20052;-61
2023/04/05 06:39:09;;;;;;;2.75;2.47;;;23.20;28.20;;;;;;5083662;28;20044;-61
2023/04/05 06:41:36;;;;;;;5.65;2.95;;;23.30;28.00;;;;;;5077082;28;20527;-61
2023/04/05 06:44:03;;;;;;;5.97;3.03;;;23.30;27.80;;;;;;5081121;28;20056;-64
2023/04/05 06:46:31;;;;;;;6.63;2.67;;;23.30;27.50;;;;;;5081157;28;20424;-61
2023/04/05 06:48:59;;;;;;;3.42;2.90;;;23.40;27.50;;;;;;5073648;28;20048;-61
2023/04/05 06:51:29;;;;;;;2.75;2.50;;;23.40;27.60;;;;;;5081349;28;20485;-61
2023/04/05 06:53:57;;;;;;;4.15;2.63;;;23.40;27.70;;;;;;5080796;28;20051;-63
2023/04/05 06:56:24;;;;;;;2.38;2.17;;;23.50;27.80;;;;;;5086833;28;20048;-62
2023/04/05 06:58:51;;;;;;;3.42;2.50;;;23.60;27.80;;;;;;5079253;28;20052;-62
2023/04/05 07:01:19;;;;;;;2.50;2.28;;;23.60;27.80;;;;;;5089379;28;20052;-63
2023/04/05 07:03:46;;;;;;;5.00;3.08;;;23.60;27.80;;;;;;5084378;28;20397;-63
2023/04/05 07:06:14;;;;;;;3.58;2.80;;;23.60;27.70;;;;;;5076957;28;20408;-63
2023/04/05 07:08:42;;;;;;;4.22;2.60;;;23.70;27.80;;;;;;5078926;28;20063;-62
2023/04/05 07:11:11;;;;;;;4.45;2.47;;;23.70;27.70;;;;;;5088005;28;20119;-62
2023/04/05 07:13:38;;;;;;;4.73;2.57;;;23.70;27.70;;;;;;5083240;28;20048;-62
2023/04/05 07:16:06;;;;;;;4.30;2.78;;;23.70;27.70;;;;;;5089575;28;20055;-61
2023/04/05 07:18:33;;;;;;;6.13;2.80;;;23.70;27.80;;;;;;5081819;28;20052;-61
2023/04/05 07:21:02;;;;;;;3.90;2.45;;;23.70;27.70;;;;;;5083909;28;20040;-61
2023/04/05 07:23:30;;;;;;;4.30;2.87;;;23.80;27.60;;;;;;5079227;28;20127;-60
2023/04/05 07:26:03;;;;;;;5.65;3.10;;;23.90;27.70;;;;;;5086168;28;20106;-62
2023/04/05 07:28:34;;;;;;;5.47;2.80;;;23.90;27.70;;;;;;5082523;28;20093;-61
2023/04/05 07:31:04;;;;;;;5.70;3.05;;;23.90;27.70;;;;;;5081723;28;20127;-61
2023/04/05 07:33:31;;;;;;;3.55;2.83;;;23.90;27.70;;;;;;5086382;28;20094;-62
2023/04/05 07:35:59;;;;;;;5.60;2.53;;;23.90;27.70;;;;;;5079314;28;20048;-62
2023/04/05 07:38:27;;;;;;;4.65;2.90;;;23.90;27.70;;;;;;5088100;28;20134;-62
2023/04/05 07:40:55;;;;;;;3.30;2.67;;;23.90;27.60;;;;;;5083015;28;20560;-62
2023/04/05 07:43:24;;;;;;;3.63;2.47;;;24.00;27.50;;;;;;5084055;28;20048;-62
2023/04/05 07:45:52;;;;;;;3.10;2.38;;;24.00;27.50;;;;;;5079277;28;20101;-61
2023/04/05 07:48:19;;;;;;;3.85;2.80;;;24.00;27.50;;;;;;5084404;28;20048;-62
2023/04/05 07:50:48;;;;;;;5.75;3.03;;;24.10;27.50;;;;;;5086197;28;20044;-62
2023/04/05 07:53:15;;;;;;;3.92;2.58;;;24.10;27.40;;;;;;5084327;28;20039;-62
2023/04/05 07:55:43;;;;;;;4.63;2.78;;;24.10;27.40;;;;;;5085913;28;20048;-63
2023/04/05 07:58:10;;;;;;;4.28;2.67;;;24.10;27.40;;;;;;5078308;28;20508;-61
2023/04/05 08:00:38;;;;;;;4.03;2.70;;;24.20;27.40;;;;;;5076981;28;20496;-63
2023/04/05 08:03:05;;;;;;;4.32;2.60;;;24.20;27.40;;;;;;5081955;28;20048;-63
2023/04/05 08:05:32;;;;;;;4.10;2.83;;;24.20;27.30;;;;;;5083462;28;20048;-64
2023/04/05 08:08:00;;;;;;;4.78;2.72;;;24.30;27.30;;;;;;5088455;28;20040;-62
2023/04/05 08:10:28;;;;;;;3.60;2.05;;;24.30;27.30;;;;;;5080696;28;20497;-62
2023/04/05 08:12:55;;;;;;;5.47;2.65;;;24.30;27.20;;;;;;5085838;28;20077;-61
2023/04/05 08:15:22;;;;;;;4.30;2.85;;;24.30;27.10;;;;;;5085299;28;20048;-61
2023/04/05 08:17:49;;;;;;;3.00;2.63;;;24.30;27.10;;;;;;5082957;28;20424;-61
2023/04/05 08:20:17;;;;;;;4.93;2.50;;;24.30;27.00;;;;;;5084292;28;20078;-61
2023/04/05 08:22:44;;;;;;;5.72;2.65;;;24.40;27.00;;;;;;5082684;28;20048;-62
2023/04/05 08:25:11;;;;;;;3.58;2.35;;;24.40;27.00;;;;;;5080240;28;20055;-61
2023/04/05 08:27:38;;;;;;;4.40;2.53;;;24.40;26.80;;;;;;5084006;28;20135;-61
2023/04/05 08:30:06;;;;;;;2.85;2.53;;;24.40;26.60;;;;;;5079980;28;20131;-61
2023/04/05 08:32:34;;;;;;;5.70;3.42;;;24.50;26.50;;;;;;5082182;28;20052;-61
2023/04/05 08:35:02;;;;;;;4.45;2.72;;;24.50;26.30;;;;;;5080260;28;20036;-63
2023/04/05 08:37:34;;;;;;;3.47;2.40;;;24.50;26.30;;;;;;5081773;28;20048;-61
2023/04/05 08:40:03;;;;;;;2.88;2.40;;;24.50;26.20;;;;;;5081053;28;20096;-59
2023/04/05 08:42:43;;;;;;;3.60;2.67;;;24.60;26.20;;;;;;5078861;28;20044;-63
2023/04/05 08:45:10;;;;;;;4.60;2.90;;;24.60;26.20;;;;;;5078450;28;20052;-63
2023/04/05 08:47:38;;;;;;;4.68;2.30;;;24.60;26.20;;;;;;5078091;28;20059;-61
2023/04/05 08:50:05;;;;;;;5.25;2.50;;;24.60;26.20;;;;;;5083315;28;20552;-62
2023/04/05 08:52:36;;;;;;;4.55;2.63;;;24.60;26.20;;;;;;5084227;28;20119;-61
2023/04/05 08:55:05;;;;;;;4.47;2.83;;;24.70;26.60;;;;;;5084928;28;20051;-64
2023/04/05 08:57:36;;;;;;;7.53;3.25;;;24.70;26.00;;;;;;5081807;28;20052;-61
2023/04/05 09:00:04;;;;;;;3.65;3.13;;;24.70;26.00;;;;;;5083153;28;20052;-61
2023/04/05 09:02:32;;;;;;;6.45;2.78;;;24.70;26.00;;;;;;5082936;28;20128;-62
2023/04/05 09:05:01;;;;;;;5.53;2.55;;;24.80;25.90;;;;;;5081926;28;20408;-62
2023/04/05 09:07:30;;;;;;;5.95;2.75;;;24.80;25.90;;;;;;5087535;28;20056;-62
2023/04/05 09:09:59;;;;;;;5.75;2.70;;;24.80;25.90;;;;;;5085472;28;20794;-63
2023/04/05 09:12:28;;;;;;;5.93;3.10;;;24.80;25.90;;;;;;5085067;28;20048;-64
2023/04/05 09:14:56;;;;;;;3.22;2.80;;;24.80;25.90;;;;;;5085406;28;20332;-64
2023/04/05 09:17:23;;;;;;;5.32;2.97;;;24.80;25.80;;;;;;5082072;28;20055;-63
2023/04/05 09:19:51;;;;;;;5.28;2.70;;;24.90;25.80;;;;;;5079180;28;20045;-63
2023/04/05 09:22:18;;;;;;;10.70;3.97;;;24.90;25.70;;;;;;5064616;28;20047;-63
2023/04/05 09:24:46;;;;;;;3.50;2.72;;;24.90;25.70;;;;;;5084284;28;20058;-63
2023/04/05 09:27:16;;;;;;;5.72;2.65;;;24.90;25.60;;;;;;5086116;28;20044;-63
2023/04/05 09:29:45;;;;;;;5.07;2.80;;;24.90;25.60;;;;;;5086936;28;20062;-60
2023/04/05 09:32:13;;;;;;;4.60;3.10;;;24.90;25.60;;;;;;5065664;28;20048;-61
2023/04/05 09:34:42;;;;;;;5.70;2.92;;;24.90;25.60;;;;;;5082855;28;20139;-60
2023/04/05 09:37:18;;;;;;;4.20;3.05;;;24.90;25.60;;;;;;5082008;28;21095;-61
2023/04/05 09:39:51;;;;;;;3.28;2.63;;;24.90;25.50;;;;;;5083471;28;20056;-61
2023/04/05 09:42:21;;;;;;;5.47;3.25;;;25.00;25.50;;;;;;5080321;28;20097;-59
2023/04/05 09:45:01;;;;;;;6.28;3.00;;;25.00;25.40;;;;;;5076234;28;20048;-63
2023/04/05 09:47:31;;;;;;;5.78;3.67;;;25.00;25.30;;;;;;5078323;28;20076;-61
2023/04/05 09:50:00;;;;;;;2.65;2.20;;;25.00;25.30;;;;;;5081325;28;20079;-60
2023/04/05 09:52:30;;;;;;;7.10;3.08;;;25.10;25.30;;;;;;5082407;28;20492;-58
2023/04/05 09:55:01;;;;;;;3.75;2.75;;;25.10;25.30;;;;;;5078697;28;20056;-60
2023/04/05 09:57:36;;;;;;;3.70;3.00;;;25.10;25.30;;;;;;5081120;28;20051;-61
2023/04/05 10:00:05;;;;;;;6.68;2.35;;;25.00;25.20;;;;;;5082185;28;20377;-61
2023/04/05 10:02:37;;;;;;;5.47;2.50;;;25.10;25.30;;;;;;5080611;28;20076;-62
2023/04/05 10:05:06;;;;;;;3.15;2.53;;;25.10;25.30;;;;;;5082298;28;20040;-61
2023/04/05 10:07:34;;;;;;;2.45;2.25;;;25.10;25.20;;;;;;5079092;28;20040;-62
2023/04/05 10:10:03;;;;;;;3.60;2.83;;;25.10;25.30;;;;;;5090492;28;20044;-61
2023/04/05 10:12:31;;;;;;;3.70;2.70;;;25.10;25.20;;;;;;5085405;28;20419;-61
2023/04/05 10:14:59;;;;;;;6.95;2.88;;;25.10;25.20;;;;;;5081187;28;20135;-62
2023/04/05 10:17:32;;;;;;;4.13;2.88;;;25.10;25.20;;;;;;5087320;28;20044;-62
2023/04/05 10:20:23;;;;;;;4.65;2.90;;;25.20;25.20;;;;;;5083565;28;20450;-62
2023/04/05 10:23:21;;;;;;;4.30;2.70;;;25.20;25.30;;;;;;5080821;28;20048;-62
2023/04/05 10:26:10;;;;;;;6.43;3.25;;;25.20;25.10;;;;;;5083527;28;20071;-62
2023/04/05 10:28:42;;;;;;;3.15;2.60;;;25.20;25.10;;;;;;5088105;28;20055;-62
2023/04/05 10:31:24;;;;;;;3.47;2.50;;;25.20;25.00;;;;;;5082258;28;20139;-62
2023/04/05 10:34:05;;;;;;;4.35;2.60;;;25.30;25.00;;;;;;5084741;28;20444;-62
2023/04/05 10:36:45;;;;;;;3.50;2.77;;;25.30;24.90;;;;;;5087980;28;20066;-62
2023/04/05 10:39:40;;;;;;;3.08;2.78;;;25.30;24.90;;;;;;5085153;28;20390;-62
2023/04/05 10:42:21;;;;;;;5.82;3.75;;;25.30;24.90;;;;;;5076972;28;20052;-61
2023/04/05 10:44:54;;;;;;;4.93;3.22;;;25.20;20.90;;;;;;5077293;28;20139;-62
2023/04/05 10:47:26;;;;;;;4.30;2.88;;;25.00;22.60;;;;;;5075655;28;20462;-61
2023/04/05 10:49:59;;;;;;;3.92;3.10;;;24.90;23.10;;;;;;5078919;28;20047;-59
2023/04/05 10:52:27;;;;;;;4.85;3.10;;;24.80;23.50;;;;;;5081904;28;20060;-59
2023/04/05 10:54:58;;;;;;;3.28;2.80;;;24.90;23.80;;;;;;5076220;28;20094;-58
2023/04/05 10:57:26;;;;;;;4.15;3.17;;;24.90;24.00;;;;;;5078678;28;20056;-58
2023/04/05 10:59:55;;;;;;;3.28;2.97;;;24.90;24.20;;;;;;5071394;28;20550;-59
2023/04/05 11:02:22;;;;;;;8.10;2.88;;;25.00;24.50;;;;;;5077759;28;20048;-59
2023/04/05 11:04:55;;;;;;;5.10;2.75;;;25.10;24.60;;;;;;5074555;28;20055;-59
2023/04/05 11:07:23;;;;;;;4.68;2.67;;;25.10;25.20;;;;;;5079910;28;20098;-59
2023/04/05 11:10:00;;;;;;;4.03;2.40;;;25.10;25.00;;;;;;5080406;28;20076;-57
2023/04/05 11:13:05;;;;;;;4.68;2.55;;;25.20;25.20;;;;;;5081050;28;20540;-58
2023/04/05 11:15:34;;;;;;;2.75;2.42;;;25.20;25.20;;;;;;5080396;28;20056;-59
2023/04/05 11:18:10;;;;;;;4.72;3.10;;;25.20;25.20;;;;;;5077010;28;20131;-58
2023/04/05 11:20:54;;;;;;;5.55;2.60;;;25.30;25.20;;;;;;5078815;28;20079;-58
2023/04/05 11:23:23;;;;;;;3.80;2.63;;;25.30;25.20;;;;;;5079255;28;20130;-58
2023/04/05 11:26:02;;;;;;;3.55;2.65;;;25.30;25.30;;;;;;5075712;28;20066;-57
2023/04/05 11:28:39;;;;;;;3.88;2.58;;;25.40;25.40;;;;;;5082595;28;20068;-58
2023/04/05 11:31:21;;;;;;;5.78;3.22;;;25.40;25.40;;;;;;5078240;28;20433;-57
2023/04/05 11:34:08;;;;;;;3.35;2.67;;;25.40;25.40;;;;;;5077424;28;20111;-57
2023/04/05 11:36:46;;;;;;;3.20;2.30;;;25.40;25.40;;;;;;5079214;28;20048;-58
2023/04/05 11:39:22;;;;;;;4.38;3.15;;;25.40;25.40;;;;;;5083737;28;20048;-59
2023/04/05 11:42:02;;;;;;;5.13;3.25;;;25.50;25.50;;;;;;5077452;28;20040;-57
2023/04/05 11:44:43;;;;;;;3.20;2.90;;;25.50;25.90;;;;;;5078753;28;20075;-56
2023/04/05 11:47:11;;;;;;;2.90;2.63;;;25.50;25.40;;;;;;5077796;28;20044;-58
2023/04/05 11:49:40;;;;;;;3.30;3.00;;;25.50;25.30;;;;;;5078239;28;20051;-59
2023/04/05 11:52:17;;;;;;;6.20;3.13;;;25.50;25.30;;;;;;5080064;28;20048;-58
2023/04/05 11:54:45;;;;;;;3.88;2.60;;;25.60;25.40;;;;;;5083548;28;20043;-58
2023/04/05 11:57:21;;;;;;;3.65;2.60;;;25.60;25.30;;;;;;5079958;28;20472;-58
2023/04/05 11:59:51;;;;;;;4.05;2.80;;;25.60;25.30;;;;;;5083906;28;20051;-56
2023/04/05 12:02:19;;;;;;;3.47;2.60;;;25.70;25.30;;;;;;5081858;28;20040;-57
2023/04/05 12:04:54;;;;;;;3.53;2.90;;;25.70;25.30;;;;;;5083727;28;20079;-57
2023/04/05 12:07:25;;;;;;;3.53;2.67;;;25.70;25.20;;;;;;5087744;28;20451;-57
2023/04/05 12:10:09;;;;;;;2.88;2.60;;;25.70;25.20;;;;;;5084965;28;20056;-58
2023/04/05 12:12:39;;;;;;;3.80;2.65;;;25.80;25.20;;;;;;5082903;28;20071;-58
2023/04/05 12:15:09;;;;;;;4.30;3.05;;;25.80;25.10;;;;;;5082499;28;20067;-61
2023/04/05 12:17:45;;;;;;;2.83;2.63;;;25.90;25.10;;;;;;5088795;28;20058;-59
2023/04/05 12:20:14;;;;;;;6.60;3.10;;;25.90;25.20;;;;;;5067278;28;20148;-59
2023/04/05 12:22:43;;;;;;;6.93;2.50;;;26.00;25.20;;;;;;5086314;28;20047;-61
2023/04/05 12:25:12;;;;;;;8.40;3.55;;;26.00;25.20;;;;;;5085043;28;20051;-59
2023/04/05 12:27:39;;;;;;;3.58;2.55;;;26.00;25.00;;;;;;5087639;28;20047;-59
2023/04/05 12:30:13;;;;;;;4.00;2.42;;;26.10;25.00;;;;;;5089767;28;20515;-61
2023/04/05 12:32:46;;;;;;;3.97;2.67;;;26.10;25.00;;;;;;5083666;28;20492;-63
2023/04/05 12:35:31;;;;;;;2.60;2.40;;;26.10;25.00;;;;;;5078412;28;20059;-62
2023/04/05 12:38:04;;;;;;;4.03;3.08;;;26.10;24.90;;;;;;5082597;28;20170;-67
2023/04/05 12:40:36;;;;;;;5.45;2.67;;;26.20;25.00;;;;;;5081135;28;20044;-60
2023/04/05 12:43:07;;;;;;;5.55;2.67;;;26.20;24.90;;;;;;5080488;28;20048;-59
2023/04/05 12:45:41;;;;;;;7.47;2.92;;;26.20;24.90;;;;;;5087174;28;20396;-64
2023/04/05 12:48:14;;;;;;;2.67;2.47;;;26.30;24.90;;;;;;5084387;28;20047;-61
2023/04/05 12:50:44;;;;;;;3.53;2.65;;;26.30;24.80;;;;;;5082600;28;20044;-60
2023/04/05 12:53:17;;;;;;;4.90;3.55;;;26.20;24.60;;;;;;5081951;28;20052;-58
2023/04/05 12:55:48;;;;;;;7.13;2.83;;;26.20;24.60;;;;;;5081332;28;20089;-63
2023/04/05 12:58:16;;;;;;;2.78;2.58;;;26.30;24.50;;;;;;5081341;28;20066;-60
2023/04/05 13:00:45;;;;;;;3.10;2.70;;;26.30;24.50;;;;;;5080214;28;20048;-60
2023/04/05 13:03:19;;;;;;;2.97;2.35;;;26.30;24.60;;;;;;5082960;28;20048;-59